Monday, September 24, 2018, 5:55 PM EDT
Back to Local

KDSV, Dansville Municipal Airport

Location: Dansville, NY, United States Lat: 42.567
Local Time: 5:55 PM EDT (21:55 GMT) Lon: -77.717
Time Zone: US/Eastern Elev: 662 ft

Show me the last for .
Show Coded

Time T Td Feel RH Dir Speed Gust Alt SLP Vis Weather Sky Remarks
2018-09-24 16:54 68 53 - 58 160° 7 - 30.32 30.34 10 OVC041 None
2018-09-24 15:54 69 53 - 56 150° 8 - 30.34 30.36 10 FEW043 None
2018-09-24 14:54 69 54 - 58 150° 15 - 30.34 30.37 10 SCT039 None
2018-09-24 13:54 67 53 - 61 140° 15 - 30.36 30.39 10 BKN034 6-hr Min Temp (2pm): 48.0°F
6-hr Max Temp (2pm): 66.9°F
2018-09-24 12:54 66 53 - 63 140° 16 23 30.37 30.39 10 CLR None
2018-09-24 11:54 64 52 - 64 120° 17 - 30.38 30.40 10 CLR None
2018-09-24 10:54 63 51 - 65 150° 17 24 30.39 30.42 10 CLR None
2018-09-24 09:54 55 51 - 86 - Calm - 30.40 30.43 10 CLR None
2018-09-24 09:23 52 49 - 89 - Calm - 30.41 - 10 SCT004 None
2018-09-24 08:54 50 48 - 92 - Calm - 30.41 30.44 10 OVC004 None
2018-09-24 07:54 48 46 - 92 - Calm - 30.41 30.45 10 OVC003 6-hr Min Temp (8am): 46.9°F
6-hr Max Temp (8am): 50.0°F
2018-09-24 06:54 48 47 - 96 - Calm - 30.39 30.41 6 BR OVC002 None
2018-09-24 06:46 48 47 47 96 70° 3 - 30.39 - 3 BR OVC002 None
2018-09-24 06:11 48 47 45 96 130° 6 - 30.37 - 1 BR OVC002 None
2018-09-24 05:54 48 46 47 92 140° 3 - 30.37 30.40 0 BR VV002 None
2018-09-24 05:47 48 46 45 92 160° 6 - 30.37 - 0 FG OVC002 None
2018-09-24 05:38 48 47 47 96 150° 3 - 30.37 - 1 BR OVC003 None
2018-09-24 04:54 49 47 - 92 - Calm - 30.36 30.39 10 OVC003 None
2018-09-24 04:11 48 46 - 92 - Calm - 30.35 - 10 BKN003 None
2018-09-24 03:54 48 46 47 92 110° 3 - 30.35 30.38 10 FEW003 None
2018-09-24 03:42 48 46 47 92 150° 3 - 30.35 - 10 FEW003 None
2018-09-24 02:54 49 47 48 92 150° 3 - 30.35 30.38 10 CLR None
2018-09-24 01:54 49 47 - 92 - Calm - 30.35 30.37 10 CLR 6-hr Min Temp (2am): 48.9°F
6-hr Max Temp (2am): 57.9°F
2018-09-24 00:54 51 48 - 89 - Calm - 30.34 30.37 10 CLR 24-hr Min Temp (1am): 46.0°F
24-hr Max Temp (1am): 69.1°F
2018-09-23 23:54 53 49 - 85 180° 6 - 30.33 30.36 10 CLR None
2018-09-23 22:54 54 50 - 86 160° 7 - 30.31 30.34 10 CLR None
2018-09-23 21:54 55 51 - 86 180° 5 - 30.30 30.33 10 CLR None
2018-09-23 20:54 55 51 - 86 170° 6 - 30.28 30.31 10 CLR None
2018-09-23 19:54 58 52 - 80 180° 5 - 30.25 30.28 10 CLR 6-hr Min Temp (8pm): 57.9°F
6-hr Max Temp (8pm): 69.1°F
2018-09-23 18:54 63 50 - 62 Variable 3 - 30.24 30.27 10 CLR None

Support USWX by starting your Amazon purchase here.